Time;durP1;ratioP1;P1;durP2;ratioP2;P2;SDS_P1;SDS_P2;PMS_P1;PMS_P2;Temp;Humidity;BMP_temperature;BMP_pressure;BME280_temperature;BME280_humidity;BME280_pressure;Samples;Min_cycle;Max_cycle;Signal;HPM_P1;HPM_P2
2023/05/14 00:00:44;;;;;;;9.20;7.30;;;8.40;99.90;;;8.34;90.91;98017.63;5076987;28;20540;-76
2023/05/14 00:03:13;;;;;;;8.50;6.00;;;8.40;99.90;;;8.50;90.00;98025.38;5055075;28;21305;-75
2023/05/14 00:05:41;;;;;;;8.23;6.00;;;8.40;99.90;;;8.48;89.57;98013.09;5087874;28;20989;-76
2023/05/14 00:08:08;;;;;;;9.20;6.03;;;8.50;99.90;;;8.34;89.52;97974.53;5087348;28;20468;-75
2023/05/14 00:10:35;;;;;;;9.20;6.50;;;8.50;99.90;;;8.64;89.09;98011.94;5093915;28;20482;-76
2023/05/14 00:13:02;;;;;;;10.73;5.80;;;8.60;99.90;;;8.67;88.81;98002.66;5089367;28;20474;-75
2023/05/14 00:15:30;;;;;;;8.43;6.50;;;8.70;99.90;;;8.70;88.42;98008.44;5073803;28;20454;-77
2023/05/14 00:17:57;;;;;;;11.03;6.23;;;8.70;99.90;;;8.39;88.81;97952.41;5069746;28;21195;-76
2023/05/14 00:20:24;;;;;;;6.70;5.87;;;8.70;99.90;;;8.62;89.17;97998.69;5088301;28;20932;-77
2023/05/14 00:22:53;;;;;;;8.53;6.50;;;8.70;99.90;;;8.64;89.64;97998.47;5060344;28;20451;-76
2023/05/14 00:25:20;;;;;;;9.03;6.10;;;8.70;99.90;;;8.70;88.73;97994.97;5084625;28;20534;-75
2023/05/14 00:27:47;;;;;;;11.50;6.33;;;8.70;99.90;;;8.66;89.46;97988.34;5057068;28;20468;-74
2023/05/14 00:30:15;;;;;;;8.40;5.87;;;8.70;99.90;;;8.20;88.53;97922.53;5058531;28;20448;-75
2023/05/14 00:32:42;;;;;;;10.27;6.70;;;8.70;99.90;;;8.52;89.34;97967.78;5085096;28;21045;-76
2023/05/14 00:35:09;;;;;;;8.53;6.10;;;8.70;99.90;;;8.55;89.66;97970.06;5062263;28;20461;-74
2023/05/14 00:37:37;;;;;;;7.90;6.27;;;8.70;99.90;;;8.50;89.62;97966.13;5057883;28;20941;-75
2023/05/14 00:40:10;;;;;;;7.67;6.40;;;8.70;99.90;;;8.53;90.28;97981.06;5077076;28;20505;-76
2023/05/14 00:42:37;;;;;;;8.67;5.90;;;8.60;99.90;;;8.60;89.73;97978.38;5060716;28;20521;-74
2023/05/14 00:45:06;;;;;;;9.50;6.00;;;8.60;99.90;;;8.53;90.54;97982.91;5088468;28;20452;-77
2023/05/14 00:47:35;;;;;;;9.50;7.47;;;8.60;99.90;;;8.32;90.56;97960.47;5074442;28;20477;-77
2023/05/14 00:50:03;;;;;;;10.20;6.83;;;8.50;99.90;;;8.02;91.57;97923.09;5104099;28;20472;-77
2023/05/14 00:52:32;;;;;;;8.13;6.50;;;8.50;99.90;;;8.32;91.92;97977.44;5085629;28;20480;-77
2023/05/14 00:54:59;;;;;;;9.53;6.97;;;8.40;99.90;;;8.32;91.97;97963.16;5069170;28;20457;-76
2023/05/14 00:57:28;;;;;;;9.10;7.23;;;8.40;99.90;;;8.53;91.12;97972.97;5054716;28;20473;-76
2023/05/14 00:59:56;;;;;;;7.63;6.17;;;8.50;99.90;;;8.51;90.70;97972.38;5075004;28;20513;-77
2023/05/14 01:02:23;;;;;;;8.27;6.20;;;8.60;99.90;;;8.34;91.38;97983.47;5073005;28;20441;-77
2023/05/14 01:04:53;;;;;;;6.90;6.20;;;8.40;99.90;;;8.22;91.74;97982.38;5059409;28;20510;-77
2023/05/14 01:07:30;;;;;;;8.30;5.93;;;8.30;99.90;;;8.16;91.91;97962.47;5066102;28;20932;-77
2023/05/14 01:10:03;;;;;;;7.93;6.63;;;8.30;99.90;;;8.17;92.36;97964.13;5069626;28;20455;-79
2023/05/14 01:12:39;;;;;;;8.50;6.67;;;8.30;99.90;;;8.20;93.14;97989.84;5057859;28;21482;-77
2023/05/14 01:15:11;;;;;;;6.90;5.70;;;8.30;99.90;;;8.19;93.14;97994.38;5073002;28;20445;-75
2023/05/14 01:17:46;;;;;;;12.00;8.00;;;8.20;99.90;;;8.18;93.19;97994.56;5074748;28;20529;-75
2023/05/14 01:20:15;;;;;;;9.50;6.53;;;8.30;99.90;;;7.63;92.80;97901.19;5092367;28;20476;-75
2023/05/14 01:22:43;;;;;;;7.63;6.77;;;8.30;99.90;;;8.08;92.99;97992.25;5075962;28;20541;-76
2023/05/14 01:25:11;;;;;;;11.73;7.17;;;8.30;99.90;;;8.22;92.62;97988.56;5081043;28;21942;-75
2023/05/14 01:27:43;;;;;;;9.70;7.30;;;8.30;99.90;;;8.26;91.56;97966.63;5081639;28;20467;-75
2023/05/14 01:30:20;;;;;;;9.37;7.37;;;8.40;99.90;;;8.41;90.54;97988.84;5045124;28;1116571;-77
2023/05/14 01:32:51;;;;;;;10.30;6.90;;;8.50;99.90;;;8.43;90.69;97984.13;5072175;28;20495;-76
2023/05/14 01:35:20;;;;;;;8.30;6.60;;;8.50;99.90;;;8.47;90.02;97982.66;5078415;28;20519;-76
2023/05/14 01:37:50;;;;;;;9.57;6.73;;;8.60;99.90;;;8.41;89.69;97978.06;5077721;28;20551;-76
2023/05/14 01:40:17;;;;;;;8.13;6.03;;;8.60;99.90;;;8.59;89.69;97988.31;5075628;28;20444;-76
2023/05/14 01:42:45;;;;;;;7.50;5.40;;;8.70;99.90;;;8.67;89.68;97981.91;5077295;28;20465;-77
2023/05/14 01:45:12;;;;;;;6.13;4.70;;;8.70;99.90;;;8.28;88.38;97913.47;5089340;28;20440;-75
2023/05/14 01:47:40;;;;;;;7.03;5.37;;;8.80;99.90;;;8.76;87.79;97986.09;5087601;28;20941;-76
2023/05/14 01:50:07;;;;;;;8.53;6.07;;;8.90;99.90;;;8.40;87.71;97914.50;5084009;28;20488;-75
2023/05/14 01:52:35;;;;;;;9.73;5.70;;;8.90;99.90;;;8.83;87.68;97985.25;5078875;28;20500;-75
2023/05/14 01:55:05;;;;;;;7.43;6.10;;;9.00;99.90;;;8.90;87.89;97981.53;5075636;28;20484;-75
2023/05/14 01:57:32;;;;;;;7.73;5.67;;;9.00;99.90;;;8.92;87.09;97981.34;5077160;28;20459;-76
2023/05/14 01:59:59;;;;;;;10.13;6.20;;;9.00;99.90;;;8.86;87.12;97977.59;5075815;28;20780;-79
2023/05/14 02:02:26;;;;;;;8.90;6.40;;;9.00;99.90;;;8.91;87.98;97968.91;5074639;28;22097;-76
2023/05/14 02:04:53;;;;;;;8.63;6.00;;;9.00;99.90;;;9.07;87.74;97979.28;5074524;28;20472;-76
2023/05/14 02:07:21;;;;;;;6.70;5.80;;;9.10;99.90;;;9.21;85.83;97984.69;5082061;28;20482;-76
2023/05/14 02:09:48;;;;;;;9.23;6.30;;;9.20;99.90;;;9.24;85.97;97978.03;5081041;28;20513;-76
2023/05/14 02:12:17;;;;;;;7.23;5.30;;;9.20;99.90;;;9.27;85.99;97977.63;5058525;28;20472;-76
2023/05/14 02:14:44;;;;;;;8.27;5.43;;;9.30;99.90;;;9.35;85.24;97972.84;5076312;28;20514;-77
2023/05/14 02:17:14;;;;;;;8.83;5.83;;;9.40;99.90;;;9.26;86.39;97968.69;5074852;28;20528;-77
2023/05/14 02:19:41;;;;;;;7.30;5.90;;;9.30;99.90;;;9.20;87.09;97961.44;5060830;28;20449;-76
2023/05/14 02:22:08;;;;;;;7.17;5.63;;;9.30;99.90;;;9.21;86.72;97955.84;5061352;28;20449;-77
2023/05/14 02:24:36;;;;;;;5.87;4.83;;;9.40;99.90;;;9.17;86.50;97956.44;5052344;28;21309;-76
2023/05/14 02:27:03;;;;;;;7.10;5.73;;;9.30;99.90;;;9.31;86.53;97941.94;5059200;28;20931;-77
2023/05/14 02:29:32;;;;;;;7.50;5.97;;;9.40;99.90;;;9.57;85.74;97961.00;5082065;28;20475;-76
2023/05/14 02:31:59;;;;;;;8.63;6.73;;;9.60;99.80;;;9.49;85.75;97946.69;5080579;28;20835;-77
2023/05/14 02:34:26;;;;;;;7.30;5.80;;;9.60;98.40;;;9.53;85.69;97957.88;5060713;28;20454;-76
2023/05/14 02:36:54;;;;;;;8.80;5.50;;;9.50;99.30;;;9.56;85.21;97933.19;5077187;28;20521;-76
2023/05/14 02:39:21;;;;;;;7.17;5.73;;;9.70;99.50;;;9.74;85.14;97955.97;5086403;28;20465;-76
2023/05/14 02:41:48;;;;;;;7.77;5.40;;;9.70;98.60;;;9.32;84.25;97878.88;5072544;28;20527;-76
2023/05/14 02:44:16;;;;;;;7.20;5.87;;;9.80;97.40;;;9.80;84.59;97957.84;5057921;28;20462;-76
2023/05/14 02:46:44;;;;;;;8.63;5.53;;;9.90;96.90;;;9.94;83.29;97953.22;5072910;28;20996;-76
2023/05/14 02:49:11;;;;;;;9.27;5.87;;;10.00;95.50;;;9.89;84.17;97958.44;5056524;28;21349;-75
2023/05/14 02:51:38;;;;;;;6.50;5.47;;;9.90;96.20;;;9.72;84.45;97942.72;5073050;28;20980;-76
2023/05/14 02:54:06;;;;;;;6.17;5.67;;;9.90;97.80;;;9.89;84.21;97953.03;5075355;28;20474;-77
2023/05/14 02:56:33;;;;;;;5.80;5.20;;;9.90;98.30;;;10.15;83.00;97957.50;5063444;28;21005;-77
2023/05/14 02:59:01;;;;;;;8.20;5.87;;;10.00;96.30;;;9.96;84.18;97950.31;5078114;28;20461;-77
2023/05/14 03:01:28;;;;;;;5.90;5.40;;;10.10;95.40;;;9.76;83.56;97916.09;5071676;28;20459;-77
2023/05/14 03:03:57;;;;;;;6.50;5.30;;;10.00;95.90;;;9.96;83.40;97939.50;5061182;28;20468;-76
2023/05/14 03:06:24;;;;;;;7.67;5.60;;;10.10;95.60;;;10.06;83.15;97953.38;5083924;28;20452;-76
2023/05/14 03:08:52;;;;;;;7.73;5.17;;;10.10;95.20;;;9.92;82.45;97914.81;5071007;28;20467;-75
2023/05/14 03:11:19;;;;;;;8.47;5.10;;;10.20;94.90;;;10.15;82.34;97944.00;5072826;28;20444;-77
2023/05/14 03:13:46;;;;;;;6.27;4.90;;;10.20;94.70;;;10.10;82.80;97943.81;5078416;28;20524;-77
2023/05/14 03:16:13;;;;;;;6.33;5.53;;;10.20;94.60;;;9.94;nan;97914.63;5077083;28;20450;-76
2023/05/14 03:18:40;;;;;;;6.00;5.03;;;10.20;94.10;;;10.12;82.32;97955.22;5057521;28;20540;-76
2023/05/14 03:21:09;;;;;;;6.23;5.40;;;10.30;93.80;;;10.15;83.17;97952.09;5074095;28;20496;-77
2023/05/14 03:23:36;;;;;;;6.73;5.43;;;10.20;94.90;;;10.11;82.72;97945.47;5075320;28;20590;-75
2023/05/14 03:26:04;;;;;;;7.10;5.30;;;10.20;94.50;;;9.97;82.50;97924.97;5074806;28;20453;-76
2023/05/14 03:28:31;;;;;;;7.63;6.13;;;10.20;94.30;;;10.11;82.57;97941.94;5074770;28;20463;-76
2023/05/14 03:30:58;;;;;;;8.50;5.70;;;10.30;93.80;;;10.15;82.57;97945.84;5066282;28;20601;-75
2023/05/14 03:33:28;;;;;;;6.57;5.10;;;10.30;93.50;;;9.98;82.01;97943.63;5083587;28;20550;-75
2023/05/14 03:35:55;;;;;;;6.10;4.90;;;10.30;93.10;;;10.06;82.64;97940.72;5065634;28;20453;-75
2023/05/14 03:38:24;;;;;;;6.87;5.30;;;10.30;93.50;;;10.00;82.64;97952.34;5067217;28;20445;-76
2023/05/14 03:40:51;;;;;;;7.63;5.80;;;10.30;93.30;;;10.03;83.14;97943.00;5088988;28;20969;-76
2023/05/14 03:43:18;;;;;;;6.53;5.07;;;10.20;93.60;;;10.16;81.87;97942.09;5066391;28;20525;-74
2023/05/14 03:45:45;;;;;;;5.33;4.47;;;10.30;93.40;;;10.18;81.53;97943.56;5064438;28;21137;-76
2023/05/14 03:48:12;;;;;;;6.97;5.77;;;10.30;93.20;;;10.24;80.95;97951.88;5079598;28;20458;-76
2023/05/14 03:50:39;;;;;;;6.70;5.20;;;10.40;92.90;;;10.22;81.26;97946.66;5053891;28;20864;-77
2023/05/14 03:53:07;;;;;;;6.40;5.67;;;10.40;92.60;;;10.13;81.93;97940.69;5074015;28;20506;-77
2023/05/14 03:55:35;;;;;;;6.63;5.07;;;10.40;92.40;;;10.06;81.48;97929.06;5054910;28;20482;-77
2023/05/14 03:58:06;;;;;;;6.53;5.43;;;10.40;92.50;;;10.08;81.22;97924.28;5072925;28;20456;-77
2023/05/14 04:00:33;;;;;;;8.10;5.60;;;10.40;92.50;;;10.07;81.97;97938.81;5082152;28;20452;-78
2023/05/14 04:03:01;;;;;;;6.63;5.20;;;10.40;92.20;;;10.06;81.13;97938.00;5054201;28;20454;-76
2023/05/14 04:05:28;;;;;;;8.27;6.10;;;10.40;92.40;;;10.20;80.92;97941.47;5075675;28;20440;-77
2023/05/14 04:07:57;;;;;;;7.20;5.43;;;10.40;92.40;;;10.14;80.99;97945.03;5084375;28;21017;-78
2023/05/14 04:10:24;;;;;;;6.60;5.70;;;10.40;91.90;;;10.16;80.86;97947.50;5059204;28;21020;-77
2023/05/14 04:12:54;;;;;;;6.77;5.40;;;10.50;91.80;;;10.24;80.09;97951.88;5072624;28;20750;-76
2023/05/14 04:15:21;;;;;;;8.60;5.97;;;10.50;91.80;;;10.19;80.57;97955.19;5077371;28;20444;-78
2023/05/14 04:17:49;;;;;;;8.80;6.27;;;10.50;91.80;;;10.08;80.33;97935.09;5078776;28;20458;-77
2023/05/14 04:20:17;;;;;;;8.53;5.20;;;10.50;91.60;;;10.22;79.99;97949.38;5061486;28;20495;-77
2023/05/14 04:22:44;;;;;;;6.97;4.83;;;10.40;91.80;;;10.39;79.43;97951.56;5064359;28;20963;-76
2023/05/14 04:25:11;;;;;;;8.50;5.90;;;10.50;91.70;;;10.36;79.12;97952.81;5077017;28;20982;-75
2023/05/14 04:27:38;;;;;;;5.57;4.50;;;10.60;91.30;;;10.44;79.05;97954.47;5081370;28;20564;-74
2023/05/14 04:30:10;;;;;;;5.83;5.23;;;10.60;91.30;;;10.54;78.95;97954.00;5068164;28;20463;-76
2023/05/14 04:32:38;;;;;;;6.80;5.50;;;10.70;91.20;;;10.41;79.30;97944.94;5078438;28;20450;-76
2023/05/14 04:35:06;;;;;;;6.30;5.03;;;10.60;90.80;;;10.40;79.40;97940.56;5063291;28;20513;-76
2023/05/14 04:37:34;;;;;;;6.03;5.37;;;10.70;91.20;;;10.51;78.86;97938.22;5053578;28;20455;-74
2023/05/14 04:40:01;;;;;;;6.47;5.23;;;10.70;90.70;;;10.55;78.62;97944.88;5074986;28;20528;-75
2023/05/14 04:42:28;;;;;;;6.93;5.73;;;10.70;90.80;;;10.45;78.43;97935.34;5074849;28;20453;-76
2023/05/14 04:44:56;;;;;;;5.47;4.97;;;10.70;90.70;;;10.49;78.52;97939.28;5073811;28;20552;-76
2023/05/14 04:47:25;;;;;;;9.00;5.87;;;10.70;90.70;;;10.57;77.72;97938.19;5073579;28;20540;-76
2023/05/14 04:49:52;;;;;;;6.87;5.30;;;10.80;90.50;;;10.72;77.92;97943.31;5077113;28;20466;-76
2023/05/14 04:52:19;;;;;;;6.17;5.20;;;10.80;90.40;;;10.86;77.40;97935.09;5058825;28;20547;-76
2023/05/14 04:54:46;;;;;;;6.33;5.70;;;10.90;90.40;;;10.83;77.11;97936.38;5073816;28;20502;-76
2023/05/14 04:57:14;;;;;;;8.83;4.70;;;11.00;89.70;;;10.95;76.85;97941.06;5072360;28;20553;-76
2023/05/14 04:59:41;;;;;;;7.00;5.90;;;11.00;89.60;;;11.01;76.95;97943.72;5076395;28;20457;-76
2023/05/14 05:02:08;;;;;;;5.50;4.57;;;11.10;89.60;;;10.89;75.84;97911.16;5068766;28;20559;-76
2023/05/14 05:04:37;;;;;;;6.33;5.30;;;11.20;88.90;;;11.13;76.22;97937.56;5071181;28;20452;-75
2023/05/14 05:07:05;;;;;;;6.70;4.90;;;11.20;88.70;;;11.48;75.33;97931.66;5067842;28;20455;-76
2023/05/14 05:09:32;;;;;;;6.00;5.13;;;11.50;88.40;;;12.77;70.38;97939.91;5064671;28;20895;-75
2023/05/14 05:12:00;;;;;;;5.73;5.20;;;12.50;85.50;;;13.35;66.43;97931.25;5081703;28;20518;-76
2023/05/14 05:14:27;;;;;;;6.10;4.90;;;13.50;81.40;;;13.62;65.11;97937.03;5082396;28;20556;-75
2023/05/14 05:16:54;;;;;;;4.93;4.50;;;13.90;80.40;;;13.01;67.12;97938.06;5072619;28;20463;-76
2023/05/14 05:19:22;;;;;;;5.57;4.40;;;13.60;80.00;;;12.51;68.59;97938.38;5054075;28;20524;-75
2023/05/14 05:21:50;;;;;;;5.23;4.23;;;13.10;80.60;;;12.79;68.54;97939.66;5070786;28;20563;-76
2023/05/14 05:24:18;;;;;;;5.97;5.13;;;13.00;81.30;;;13.03;66.95;97916.13;5074219;28;20533;-76
2023/05/14 05:26:45;;;;;;;6.20;4.67;;;13.40;80.80;;;12.70;68.71;97933.72;5057905;28;20469;-75
2023/05/14 05:29:12;;;;;;;5.57;4.57;;;13.20;80.90;;;13.43;66.33;97923.59;5086061;28;21047;-76
2023/05/14 05:31:39;;;;;;;5.10;4.60;;;13.60;80.40;;;13.83;63.82;97880.50;5082054;28;20487;-74
2023/05/14 05:34:06;;;;;;;8.50;5.23;;;14.50;79.10;;;14.59;62.12;97912.09;5077407;28;20474;-75
2023/05/14 05:36:33;;;;;;;5.20;4.13;;;14.90;77.20;;;15.41;60.06;97917.28;5079367;28;20439;-75
2023/05/14 05:39:02;;;;;;;4.90;4.40;;;15.70;75.80;;;15.46;58.95;97909.16;5076609;28;20459;-77
2023/05/14 05:41:30;;;;;;;4.70;4.07;;;16.40;73.50;;;15.61;57.76;97910.47;5051829;28;20447;-76
2023/05/14 05:43:57;;;;;;;6.60;3.77;;;16.70;71.30;;;16.18;56.32;97919.41;5058495;28;20806;-76
2023/05/14 05:46:24;;;;;;;5.07;4.57;;;16.80;70.40;;;14.35;61.29;97928.50;5071779;28;20813;-73
2023/05/14 05:48:52;;;;;;;6.23;5.60;;;15.70;71.50;;;13.91;62.21;97923.53;5071620;28;20468;-70
2023/05/14 05:51:19;;;;;;;5.60;5.10;;;15.00;72.40;;;13.56;64.15;97927.16;5075953;28;20513;-70
2023/05/14 05:53:46;;;;;;;6.20;5.60;;;14.30;75.10;;;13.43;64.83;97926.31;5083169;28;20473;-70
2023/05/14 05:56:15;;;;;;;6.20;4.43;;;14.00;76.50;;;14.54;61.88;97914.72;5082478;28;20455;-70
2023/05/14 05:58:42;;;;;;;4.87;4.37;;;14.60;76.50;;;15.25;59.82;97911.59;5069280;28;20466;-70
2023/05/14 06:01:09;;;;;;;5.70;4.87;;;15.50;74.60;;;14.44;60.96;97916.16;5056647;28;20456;-70
2023/05/14 06:03:37;;;;;;;6.03;4.47;;;15.50;72.90;;;14.03;62.78;97905.34;5074384;28;20482;-71
2023/05/14 06:06:06;;;;;;;5.10;4.60;;;14.90;74.10;;;13.52;63.55;97915.94;5077824;28;20529;-71
2023/05/14 06:08:33;;;;;;;6.60;5.30;;;14.30;74.70;;;13.49;64.29;97924.56;5066360;28;20527;-72
2023/05/14 06:11:00;;;;;;;5.53;4.90;;;14.10;75.80;;;13.10;65.94;97921.44;5087038;28;20465;-72
2023/05/14 06:13:29;;;;;;;5.33;4.30;;;13.70;76.60;;;13.03;65.82;97906.09;5092021;28;20462;-72
2023/05/14 06:15:56;;;;;;;6.37;5.27;;;13.50;77.70;;;13.39;65.49;97922.41;5082233;28;20509;-71
2023/05/14 06:18:23;;;;;;;5.10;4.60;;;13.50;78.30;;;13.40;65.37;97923.22;5085129;28;20521;-71
2023/05/14 06:20:50;;;;;;;7.37;4.73;;;13.70;78.20;;;13.00;66.57;97925.56;5076093;28;20474;-72
2023/05/14 06:23:17;;;;;;;5.00;4.50;;;13.50;78.10;;;12.99;66.27;97923.91;5077056;28;20535;-72
2023/05/14 06:25:45;;;;;;;4.70;3.97;;;13.50;78.10;;;12.83;66.90;97936.25;5094393;28;20485;-71
2023/05/14 06:28:12;;;;;;;5.13;4.23;;;13.30;78.40;;;12.71;66.58;97933.50;5056023;28;20453;-70
2023/05/14 06:30:40;;;;;;;5.87;4.67;;;13.20;78.30;;;12.70;66.90;97918.31;5066297;28;20457;-71
2023/05/14 06:33:08;;;;;;;7.20;5.10;;;13.10;78.90;;;12.85;66.85;97927.88;5082346;28;20550;-73
2023/05/14 06:35:35;;;;;;;6.63;5.10;;;13.20;79.00;;;12.96;66.71;97929.78;5062635;28;20527;-72
2023/05/14 06:38:03;;;;;;;5.00;4.50;;;13.20;78.90;;;12.88;66.50;97930.13;5084952;28;20441;-71
2023/05/14 06:40:30;;;;;;;5.70;5.10;;;13.30;78.90;;;13.13;66.01;97934.53;5058598;28;20467;-71
2023/05/14 06:42:57;;;;;;;5.57;4.30;;;13.40;78.90;;;13.25;65.77;97938.06;5081580;28;20458;-72
2023/05/14 06:45:25;;;;;;;5.40;4.33;;;13.50;78.60;;;13.15;64.73;97916.97;5083773;28;20456;-70
2023/05/14 06:47:53;;;;;;;4.70;4.10;;;13.60;77.80;;;13.38;64.68;97930.78;5051355;28;21152;-72
2023/05/14 06:50:20;;;;;;;7.40;5.03;;;13.60;78.00;;;13.52;64.58;97937.63;5091452;28;20496;-71
2023/05/14 06:52:48;;;;;;;4.83;4.33;;;13.70;78.00;;;13.74;63.98;97931.63;5063023;28;21227;-71
2023/05/14 06:55:15;;;;;;;5.80;5.07;;;13.80;77.80;;;13.79;62.97;97922.75;5055000;28;20472;-71
2023/05/14 06:57:42;;;;;;;5.07;4.30;;;14.10;77.10;;;13.87;63.12;97928.63;5072865;28;21004;-71
2023/05/14 07:00:11;;;;;;;5.53;4.50;;;14.10;76.90;;;13.69;63.53;97934.22;5078027;28;20520;-71
2023/05/14 07:02:38;;;;;;;6.33;4.37;;;14.00;77.00;;;14.03;62.75;97926.25;5078749;28;20450;-72
2023/05/14 07:05:08;;;;;;;5.47;4.67;;;14.10;76.90;;;14.13;62.14;97923.72;5081229;28;20506;-70
2023/05/14 07:07:35;;;;;;;4.90;4.50;;;14.40;76.50;;;14.24;61.69;97924.75;5061395;28;20562;-72
2023/05/14 07:10:03;;;;;;;5.60;4.27;;;14.40;76.30;;;14.38;61.76;97924.47;5071486;28;21198;-72
2023/05/14 07:12:30;;;;;;;6.00;4.50;;;14.50;76.00;;;14.37;61.15;97925.53;5075074;28;20884;-73
2023/05/14 07:14:57;;;;;;;5.77;4.93;;;14.60;75.70;;;14.66;61.12;97914.66;5092801;28;20532;-73
2023/05/14 07:17:25;;;;;;;5.13;4.50;;;14.70;75.70;;;14.83;60.22;97920.16;5069521;28;20459;-72
2023/05/14 07:19:54;;;;;;;6.73;4.50;;;15.00;75.20;;;14.73;59.38;97918.91;5088203;28;20496;-70
2023/05/14 07:22:22;;;;;;;5.87;4.10;;;15.00;73.90;;;14.76;60.11;97919.47;5076442;28;20458;-70
2023/05/14 07:24:50;;;;;;;5.33;4.83;;;15.00;74.30;;;15.19;58.75;97918.00;5080667;28;20571;-72
2023/05/14 07:27:17;;;;;;;5.33;4.50;;;15.30;74.00;;;15.06;59.10;97904.75;5080524;28;20459;-74
2023/05/14 07:29:45;;;;;;;5.63;4.30;;;15.40;73.50;;;14.96;58.97;97914.41;5084270;28;20474;-72
2023/05/14 07:32:12;;;;;;;4.37;3.77;;;15.40;73.00;;;16.10;56.17;97910.56;5083863;28;20478;-75
2023/05/14 07:34:39;;;;;;;4.03;3.50;;;15.90;72.80;;;17.01;53.72;97914.78;5082868;28;20472;-73
2023/05/14 07:37:07;;;;;;;4.33;3.90;;;16.60;70.90;;;17.36;52.62;97910.69;5079915;28;20452;-73
2023/05/14 07:39:35;;;;;;;5.67;4.17;;;17.10;69.10;;;17.00;52.88;97913.97;5080542;28;20461;-75
2023/05/14 07:42:02;;;;;;;5.30;4.47;;;17.30;67.70;;;16.59;54.71;97895.28;5081794;28;20529;-74
2023/05/14 07:44:30;;;;;;;5.00;3.47;;;16.90;68.20;;;16.18;55.10;97900.31;5081603;28;20457;-74
2023/05/14 07:46:59;;;;;;;4.80;4.30;;;16.70;68.00;;;15.78;56.69;97904.97;5081175;28;20459;-73
2023/05/14 07:49:26;;;;;;;4.97;4.17;;;16.20;68.80;;;15.50;56.92;97906.78;5065239;28;20475;-73
2023/05/14 07:51:54;;;;;;;5.00;4.27;;;15.90;69.10;;;15.50;56.75;97899.41;5077140;28;20463;-73
2023/05/14 07:54:21;;;;;;;5.83;3.90;;;15.80;69.10;;;15.55;57.21;97894.06;5064275;28;20506;-73
2023/05/14 07:56:50;;;;;;;6.00;4.07;;;15.80;70.10;;;15.89;55.52;97856.91;5063058;28;20466;-74
2023/05/14 07:59:17;;;;;;;4.37;3.90;;;16.00;69.80;;;16.19;55.30;97888.34;5085509;28;20509;-75
2023/05/14 08:01:44;;;;;;;4.80;4.30;;;16.30;68.90;;;16.45;55.20;97878.53;5082946;28;20607;-74
2023/05/14 08:04:11;;;;;;;4.67;4.20;;;16.50;69.50;;;16.85;53.97;97895.53;5062685;28;20452;-72
2023/05/14 08:06:39;;;;;;;4.43;4.03;;;16.80;68.80;;;16.36;55.08;97897.25;5083126;28;20455;-71
2023/05/14 08:09:06;;;;;;;5.10;3.47;;;16.70;68.20;;;16.68;54.07;97882.84;5079094;28;20456;-74
2023/05/14 08:11:33;;;;;;;4.87;4.10;;;16.70;68.00;;;16.32;54.68;97896.13;5081688;28;21232;-71
2023/05/14 08:14:02;;;;;;;5.10;4.60;;;16.60;67.50;;;16.00;55.69;97892.22;5083647;28;20454;-72
2023/05/14 08:16:29;;;;;;;4.63;3.93;;;16.30;67.80;;;15.30;57.52;97889.88;5086398;28;20448;-72
2023/05/14 08:18:56;;;;;;;5.50;4.13;;;15.90;68.20;;;14.90;58.81;97885.44;5066923;28;20454;-71
2023/05/14 08:21:23;;;;;;;4.97;4.33;;;15.40;69.60;;;15.10;58.84;97895.03;5062893;28;20451;-75
2023/05/14 08:23:51;;;;;;;5.40;4.47;;;15.30;70.70;;;14.79;59.43;97906.22;5085519;28;20444;-71
2023/05/14 08:26:18;;;;;;;4.03;3.63;;;15.20;70.60;;;15.15;58.62;97900.53;5090103;28;20524;-71
2023/05/14 08:28:45;;;;;;;4.70;4.20;;;15.20;71.10;;;15.18;59.17;97899.22;5085222;28;20506;-71
2023/05/14 08:31:14;;;;;;;4.30;3.90;;;15.20;71.80;;;15.51;58.18;97889.38;5086119;28;20455;-73
2023/05/14 08:33:41;;;;;;;5.53;4.47;;;15.40;71.20;;;15.43;58.09;97896.06;5077294;28;20463;-71
2023/05/14 08:36:09;;;;;;;4.50;4.10;;;15.40;70.90;;;15.17;58.68;97890.22;5078403;28;20595;-70
2023/05/14 08:38:36;;;;;;;5.00;4.50;;;15.40;70.80;;;15.28;58.39;97881.16;5080091;28;20541;-69
2023/05/14 08:41:06;;;;;;;3.90;3.50;;;15.40;71.00;;;15.33;58.54;97882.28;5058965;28;20509;-79
2023/05/14 08:43:44;;;;;;;4.37;3.40;;;15.40;71.10;;;15.82;57.00;97879.69;5054992;28;20533;-77
2023/05/14 08:46:15;;;;;;;7.00;4.00;;;15.80;70.80;;;15.59;56.50;97826.28;5060617;28;20490;-70
2023/05/14 08:48:43;;;;;;;5.53;4.63;;;16.00;70.30;;;15.90;55.68;97883.09;5071860;28;20518;-70
2023/05/14 08:51:10;;;;;;;4.63;4.23;;;16.10;69.10;;;16.28;55.56;97876.72;5084698;28;20671;-69
2023/05/14 11:49:09;;;;;;;4.30;3.43;;;19.00;56.70;;;18.44;47.30;97742.78;5494092;22;20499;-74
2023/05/14 11:51:36;;;;;;;3.40;3.10;;;18.60;56.80;;;18.87;46.76;97740.50;4994926;28;20845;-74
2023/05/14 11:54:04;;;;;;;3.63;3.33;;;18.70;57.00;;;18.65;46.54;97749.03;5015914;28;20533;-74
2023/05/14 11:56:31;;;;;;;3.67;3.37;;;18.80;56.60;;;18.56;47.29;97746.03;5011832;28;20595;-72
2023/05/14 11:58:58;;;;;;;3.40;3.10;;;18.70;57.10;;;18.75;46.88;97734.53;5001658;28;20465;-76
2023/05/14 12:01:27;;;;;;;4.53;3.10;;;18.60;57.10;;;18.75;47.22;97727.13;5013401;28;20498;-74
2023/05/14 12:03:55;;;;;;;3.77;3.47;;;18.70;57.40;;;18.41;48.47;97731.25;5004462;28;20545;-75
2023/05/14 12:06:31;;;;;;;2.87;2.57;;;18.70;57.80;;;18.73;47.27;97739.44;5001171;28;20492;-74
2023/05/14 12:09:00;;;;;;;3.60;3.27;;;18.60;57.30;;;18.53;47.58;97732.91;4999338;28;20463;-76
2023/05/14 12:11:31;;;;;;;3.93;3.53;;;18.60;57.20;;;18.22;48.52;97730.16;4999926;28;20668;-75
2023/05/14 12:14:00;;;;;;;4.00;3.40;;;18.40;57.60;;;18.15;48.91;97729.63;5022966;28;20465;-75
2023/05/14 12:16:31;;;;;;;3.37;3.07;;;18.20;57.90;;;18.11;48.52;97729.34;5002960;28;20514;-76
2023/05/14 12:19:00;;;;;;;3.63;3.33;;;18.20;57.70;;;17.79;48.83;97728.44;5007051;28;20550;-75
2023/05/14 12:21:30;;;;;;;2.93;2.63;;;17.90;57.40;;;18.07;48.96;97723.59;5006349;28;20464;-74
2023/05/14 12:23:59;;;;;;;5.03;3.53;;;18.00;58.10;;;18.17;49.25;97727.44;5001922;28;21021;-75
2023/05/14 12:26:27;;;;;;;3.27;2.97;;;18.10;58.30;;;18.16;49.17;97725.81;5022881;28;20475;-75
2023/05/14 12:28:59;;;;;;;3.67;3.37;;;18.20;58.30;;;18.28;48.42;97709.94;5029736;28;20456;-72
2023/05/14 12:31:31;;;;;;;3.60;3.00;;;18.30;57.90;;;18.79;47.79;97719.19;5004743;28;20899;-73
2023/05/14 12:33:58;;;;;;;3.40;3.10;;;18.60;58.00;;;19.06;47.20;97707.13;4999859;28;20468;-74
2023/05/14 12:36:26;;;;;;;4.47;3.30;;;18.80;57.90;;;19.30;46.21;97714.69;5016234;28;20482;-74
2023/05/14 12:39:01;;;;;;;3.67;3.37;;;19.10;57.30;;;19.65;45.87;97715.63;5001595;28;21212;-75
2023/05/14 12:41:30;;;;;;;3.83;3.43;;;19.40;57.40;;;19.76;45.13;97706.22;5000561;28;20493;-74
2023/05/14 12:43:57;;;;;;;3.53;3.00;;;19.60;56.70;;;19.63;44.76;97698.63;4982848;28;20491;-75
2023/05/14 12:46:27;;;;;;;3.50;3.20;;;19.60;56.40;;;19.74;45.38;97702.97;5021071;28;20462;-74
2023/05/14 12:48:55;;;;;;;3.47;3.17;;;19.70;56.50;;;19.70;45.38;97695.59;4998762;28;20485;-74
2023/05/14 12:51:22;;;;;;;3.13;2.83;;;19.70;56.20;;;19.64;44.86;97706.59;5024064;28;20471;-75
2023/05/14 12:53:51;;;;;;;3.40;3.10;;;19.70;56.00;;;19.63;44.81;97696.72;5025617;28;20459;-74
2023/05/14 12:56:20;;;;;;;3.93;3.40;;;19.60;56.10;;;19.67;44.80;97680.56;4997844;28;20549;-74
2023/05/14 12:58:47;;;;;;;4.00;3.20;;;19.60;55.60;;;19.75;45.15;97685.41;5013199;28;20460;-74
2023/05/14 13:01:14;;;;;;;2.90;2.70;;;19.80;56.20;;;20.28;44.36;97692.22;4999918;28;20456;-74
2023/05/14 13:03:42;;;;;;;4.60;4.20;;;20.00;56.10;;;20.35;44.09;97692.69;4996388;28;20472;-74
2023/05/14 13:06:09;;;;;;;4.20;3.83;;;20.30;55.80;;;20.29;44.77;97682.88;5007334;28;20458;-73
2023/05/14 13:08:36;;;;;;;3.90;3.50;;;20.40;56.00;;;20.36;43.14;97691.56;5024540;28;20972;-75
2023/05/14 13:11:04;;;;;;;2.63;2.43;;;20.40;54.90;;;19.77;43.96;97647.56;5022172;28;20461;-74
2023/05/14 13:13:32;;;;;;;3.30;3.00;;;20.10;54.70;;;20.34;43.68;97684.75;5001704;28;21325;-74
2023/05/14 13:15:59;;;;;;;2.93;2.63;;;20.30;55.20;;;20.34;43.09;97687.50;5003746;28;21060;-74
2023/05/14 13:18:27;;;;;;;2.80;2.60;;;20.30;54.60;;;20.31;43.74;97680.66;5020420;28;20461;-73
2023/05/14 13:20:56;;;;;;;2.87;2.67;;;20.30;55.00;;;20.33;44.05;97674.91;5001401;28;20460;-75